createdAt,value
2017-11-04T00:01:39.439Z,24.13
2017-11-04T00:04:06.906Z,19.03
2017-11-04T00:06:35.165Z,19.33
2017-11-04T00:09:03.517Z,21.40
2017-11-04T00:11:30.993Z,21.03
2017-11-04T00:13:58.487Z,19.93
2017-11-04T00:16:26.746Z,18.40
2017-11-04T00:18:55.001Z,21.50
2017-11-04T00:21:22.482Z,19.50
2017-11-04T00:23:49.958Z,20.63
2017-11-04T00:26:18.203Z,21.17
2017-11-04T00:28:45.680Z,20.05
2017-11-04T00:31:13.946Z,20.63
2017-11-04T00:33:41.433Z,25.10
2017-11-04T00:36:08.926Z,22.50
2017-11-04T00:38:36.400Z,22.23
2017-11-04T00:41:03.865Z,20.97
2017-11-04T00:43:31.352Z,20.70
2017-11-04T00:45:59.595Z,19.33
2017-11-04T00:48:27.077Z,23.33
2017-11-04T00:50:55.317Z,20.60
2017-11-04T00:53:22.807Z,19.47
2017-11-04T00:55:51.058Z,18.93
2017-11-04T00:58:18.542Z,23.30
2017-11-04T01:00:46.793Z,22.00
2017-11-04T01:03:14.276Z,18.90
2017-11-04T01:05:42.517Z,20.93
2017-11-04T01:08:10.011Z,18.70
2017-11-04T01:10:38.244Z,19.30
2017-11-04T01:13:05.751Z,26.80
2017-11-04T01:15:34.002Z,20.43
2017-11-04T01:18:01.480Z,19.80
2017-11-04T01:20:29.745Z,20.47
2017-11-04T01:22:58.023Z,18.87
2017-11-04T01:25:25.494Z,23.57
2017-11-04T01:27:53.750Z,19.23
2017-11-04T01:30:21.224Z,20.27
2017-11-04T01:32:49.485Z,18.33
2017-11-04T01:35:17.308Z,18.40
2017-11-04T01:37:44.781Z,20.73
2017-11-04T01:40:12.280Z,20.00
2017-11-04T01:42:40.516Z,18.33
2017-11-04T01:45:08.020Z,19.70
2017-11-04T01:47:36.316Z,26.63
2017-11-04T01:50:03.801Z,16.70
2017-11-04T01:52:32.047Z,19.97
2017-11-04T01:54:59.533Z,18.20
2017-11-04T01:57:27.034Z,17.48
2017-11-04T01:59:54.519Z,20.00
2017-11-04T02:02:21.993Z,20.43
2017-11-04T02:04:49.479Z,18.07
2017-11-04T02:07:16.967Z,16.17
2017-11-04T02:09:45.229Z,20.80
2017-11-04T02:12:12.699Z,16.85
2017-11-04T02:14:40.216Z,17.83
2017-11-04T02:17:07.679Z,17.80
2017-11-04T02:19:35.169Z,18.80
2017-11-04T02:22:02.680Z,19.33
2017-11-04T02:24:30.152Z,15.40
2017-11-04T02:26:57.640Z,20.10
2017-11-04T02:29:25.117Z,18.37
2017-11-04T02:31:53.389Z,16.23
2017-11-04T02:34:21.635Z,20.83
2017-11-04T02:36:49.131Z,19.93
2017-11-04T02:39:16.625Z,17.27
2017-11-04T02:41:44.130Z,20.45
2017-11-04T02:44:12.388Z,24.43
2017-11-04T02:46:39.892Z,19.80
2017-11-04T02:49:07.398Z,18.53
2017-11-04T02:51:34.889Z,19.10
2017-11-04T02:54:03.132Z,19.47
2017-11-04T02:56:30.716Z,18.60
2017-11-04T02:58:58.985Z,18.90
2017-11-04T03:01:26.468Z,17.80
2017-11-04T03:03:54.710Z,16.87
2017-11-04T03:06:22.198Z,17.00
2017-11-04T03:08:50.475Z,22.83
2017-11-04T03:11:18.793Z,19.13
2017-11-04T03:13:46.264Z,19.17
2017-11-04T03:16:13.742Z,20.03
2017-11-04T03:18:41.352Z,17.43
2017-11-04T03:21:08.835Z,20.60
2017-11-04T03:23:36.337Z,17.90
2017-11-04T03:26:04.577Z,16.02
2017-11-04T03:28:32.066Z,16.20
2017-11-04T03:30:59.536Z,18.97
2017-11-04T03:33:27.777Z,16.47
2017-11-04T03:35:56.489Z,22.92
2017-11-04T03:38:24.749Z,17.77
2017-11-04T03:40:52.222Z,16.40
2017-11-04T03:43:20.501Z,17.50
2017-11-04T03:45:49.742Z,20.73
2017-11-04T03:48:17.234Z,17.57
2017-11-04T03:50:45.549Z,18.60
2017-11-04T03:53:13.039Z,18.63
2017-11-04T03:55:40.517Z,19.70
2017-11-04T03:58:08.020Z,20.33
2017-11-04T04:00:35.507Z,15.60
2017-11-04T04:03:02.988Z,19.37
2017-11-04T04:05:30.473Z,20.87
2017-11-04T04:07:57.951Z,19.67
2017-11-04T04:10:26.201Z,21.93
2017-11-04T04:12:53.685Z,20.73
2017-11-04T04:15:21.936Z,22.57
2017-11-04T04:17:49.421Z,22.40
2017-11-04T04:20:16.915Z,25.53
2017-11-04T04:22:44.380Z,25.40
2017-11-04T04:25:11.880Z,26.57
2017-11-04T04:27:40.164Z,29.13
2017-11-04T04:30:08.438Z,27.37
2017-11-04T04:32:37.673Z,26.80
2017-11-04T04:35:05.934Z,26.63
2017-11-04T04:37:33.417Z,25.70
2017-11-04T04:40:00.925Z,26.90
2017-11-04T04:42:29.169Z,22.50
2017-11-04T04:44:56.652Z,24.67
2017-11-04T04:47:24.897Z,27.40
2017-11-04T04:49:52.405Z,22.90
2017-11-04T04:52:20.647Z,31.07
2017-11-04T04:54:48.148Z,24.23
2017-11-04T04:57:15.630Z,27.93
2017-11-04T04:59:43.117Z,25.03
2017-11-04T05:02:10.589Z,26.97
2017-11-04T05:04:38.086Z,28.73
2017-11-04T05:07:06.017Z,26.50
2017-11-04T05:09:34.277Z,24.60
2017-11-04T05:12:01.748Z,23.50
2017-11-04T05:14:29.233Z,29.00
2017-11-04T05:16:56.719Z,24.47
2017-11-04T05:19:24.206Z,26.60
2017-11-04T05:21:51.673Z,24.17
2017-11-04T05:24:20.681Z,28.33
2017-11-04T05:26:48.926Z,24.03
2017-11-04T05:29:16.928Z,26.50
2017-11-04T05:31:45.184Z,26.03
2017-11-04T05:34:12.656Z,23.47
2017-11-04T05:36:40.928Z,26.83
2017-11-04T05:39:08.429Z,31.80
2017-11-04T05:41:35.931Z,37.80
2017-11-04T05:44:03.430Z,32.80
2017-11-04T05:46:30.921Z,30.47
2017-11-04T05:48:58.417Z,33.73
2017-11-04T05:51:25.910Z,31.13
2017-11-04T05:53:53.935Z,33.87
2017-11-04T05:56:21.512Z,26.27
2017-11-04T05:58:48.993Z,32.47
2017-11-04T06:01:16.500Z,35.57
2017-11-04T06:03:43.989Z,30.60
2017-11-04T06:06:12.140Z,30.57
2017-11-04T06:08:39.727Z,30.30
2017-11-04T06:11:07.991Z,34.22
2017-11-04T06:13:36.238Z,30.00
2017-11-04T06:16:03.735Z,28.80
2017-11-04T06:18:31.992Z,30.50
2017-11-04T06:20:59.496Z,32.77
2017-11-04T06:23:27.031Z,30.47
2017-11-04T06:25:55.270Z,33.67
2017-11-04T06:28:22.765Z,32.87
2017-11-04T06:30:51.041Z,30.47
2017-11-04T06:33:19.314Z,33.58
2017-11-04T06:35:47.548Z,26.87
2017-11-04T06:38:15.041Z,34.60
2017-11-04T06:40:42.537Z,33.17
2017-11-04T06:43:10.059Z,34.73
2017-11-04T06:45:37.529Z,36.10
2017-11-04T06:48:05.825Z,33.07
2017-11-04T06:50:33.302Z,36.47
2017-11-04T06:53:00.814Z,36.23
2017-11-04T06:55:29.094Z,33.20
2017-11-04T06:57:57.361Z,34.60
2017-11-04T07:00:24.841Z,37.10
2017-11-04T07:02:52.334Z,41.77
2017-11-04T07:05:19.822Z,40.83
2017-11-04T07:07:48.100Z,39.88
2017-11-04T07:10:15.582Z,41.43
2017-11-04T07:12:43.832Z,35.97
2017-11-04T07:15:11.416Z,36.10
2017-11-04T07:17:39.659Z,41.25
2017-11-04T07:20:07.147Z,40.30
2017-11-04T07:22:35.395Z,38.83
2017-11-04T07:25:02.873Z,44.23
2017-11-04T07:27:30.358Z,36.47
2017-11-04T07:29:57.842Z,38.97
2017-11-04T07:32:25.351Z,42.93
2017-11-04T07:34:53.587Z,45.37
2017-11-04T07:37:21.057Z,42.97
2017-11-04T07:39:48.556Z,37.20
2017-11-04T07:42:16.816Z,42.00
2017-11-04T07:44:44.319Z,38.27
2017-11-04T07:47:11.797Z,37.87
2017-11-04T07:49:39.298Z,40.70
2017-11-04T07:52:07.541Z,45.10
2017-11-04T07:54:35.037Z,38.23
2017-11-04T07:57:03.297Z,38.77
2017-11-04T07:59:30.794Z,38.90
2017-11-04T08:01:58.274Z,35.70
2017-11-04T08:04:27.529Z,36.97
2017-11-04T08:06:56.777Z,36.10
2017-11-04T08:09:24.272Z,36.40
2017-11-04T08:11:51.736Z,37.97
2017-11-04T08:14:20.005Z,42.30
2017-11-04T08:16:48.257Z,36.23
2017-11-04T08:19:15.849Z,39.73
2017-11-04T08:21:44.132Z,39.13
2017-11-04T08:24:12.936Z,42.75
2017-11-04T08:26:40.425Z,38.83
2017-11-04T08:29:07.916Z,40.93
2017-11-04T08:31:36.912Z,45.00
2017-11-04T08:34:04.405Z,45.92
2017-11-04T08:36:31.921Z,42.90
2017-11-04T08:38:59.414Z,40.83
2017-11-04T08:41:26.897Z,40.37
2017-11-04T08:43:54.996Z,36.50
2017-11-04T08:46:22.505Z,42.73
2017-11-04T08:48:49.988Z,42.63
2017-11-04T08:51:21.293Z,40.50
2017-11-04T08:53:49.540Z,48.00
2017-11-04T08:56:17.033Z,46.63
2017-11-04T08:58:45.280Z,42.07
2017-11-04T09:01:12.769Z,36.80
2017-11-04T09:03:41.013Z,43.97
2017-11-04T09:06:08.500Z,43.07
2017-11-04T09:08:36.737Z,44.10
2017-11-04T09:11:04.234Z,40.40
2017-11-04T09:13:32.494Z,37.67
2017-11-04T09:16:00.759Z,40.13
2017-11-04T09:18:29.761Z,39.45
2017-11-04T09:21:03.115Z,38.25
2017-11-04T09:23:30.609Z,38.60
2017-11-04T09:25:58.892Z,37.90
2017-11-04T09:28:27.148Z,39.47
2017-11-04T09:30:54.685Z,37.07
2017-11-04T09:33:22.173Z,39.83
2017-11-04T09:35:49.650Z,37.70
2017-11-04T09:38:17.151Z,40.97
2017-11-04T09:40:44.642Z,40.58
2017-11-04T09:43:12.242Z,40.30
2017-11-04T09:45:40.481Z,40.07
2017-11-04T09:48:07.976Z,40.23
2017-11-04T09:50:36.237Z,41.67
2017-11-04T09:53:04.495Z,45.43
2017-11-04T09:55:32.002Z,40.27
2017-11-04T09:58:00.317Z,32.70
2017-11-04T10:00:28.549Z,37.40
2017-11-04T10:02:56.052Z,44.00
2017-11-04T10:05:23.599Z,43.47
2017-11-04T10:07:51.115Z,43.67
2017-11-04T10:10:19.037Z,41.30
2017-11-04T10:12:46.642Z,38.87
2017-11-04T10:15:14.897Z,41.23
2017-11-04T10:17:42.412Z,37.60
2017-11-04T10:20:09.897Z,39.57
2017-11-04T10:22:37.419Z,39.60
2017-11-04T10:25:04.897Z,34.67
2017-11-04T10:27:32.414Z,35.97
2017-11-04T10:29:59.903Z,33.80
2017-11-04T10:32:27.393Z,36.80
2017-11-04T10:34:54.884Z,36.40
2017-11-04T10:37:23.144Z,34.60
2017-11-04T10:39:52.004Z,33.73
2017-11-04T10:42:19.493Z,33.97
2017-11-04T10:44:47.760Z,32.73
2017-11-04T10:47:15.237Z,36.95
2017-11-04T10:49:43.493Z,37.47
2017-11-04T10:52:10.970Z,36.73
2017-11-04T10:54:39.215Z,34.93
2017-11-04T10:57:06.707Z,35.78
2017-11-04T10:59:34.971Z,44.63
2017-11-04T11:02:03.236Z,34.63
2017-11-04T11:04:30.739Z,37.53
2017-11-04T11:06:58.209Z,37.00
2017-11-04T11:09:26.778Z,33.10
2017-11-04T11:11:54.317Z,35.33
2017-11-04T11:14:22.568Z,36.33
2017-11-04T11:16:50.059Z,37.30
2017-11-04T11:19:17.600Z,31.53
2017-11-04T11:21:45.854Z,32.20
2017-11-04T11:24:13.359Z,35.03
2017-11-04T11:26:40.856Z,34.30
2017-11-04T11:29:09.280Z,34.53
2017-11-04T11:31:38.324Z,30.73
2017-11-04T11:34:05.832Z,35.43
2017-11-04T11:36:34.087Z,36.13
2017-11-04T11:39:01.596Z,37.23
2017-11-04T11:41:29.090Z,31.02
2017-11-04T11:43:56.786Z,33.43
2017-11-04T11:46:25.033Z,29.00
2017-11-04T11:48:52.552Z,31.70
2017-11-04T11:51:22.100Z,32.03
2017-11-04T11:53:49.582Z,35.10
2017-11-04T11:56:17.840Z,32.00
2017-11-04T11:58:46.101Z,35.03
2017-11-04T12:01:13.614Z,31.43
2017-11-04T12:03:41.086Z,31.75
2017-11-04T12:06:08.578Z,31.20
2017-11-04T12:08:36.051Z,30.00
2017-11-04T12:11:03.553Z,33.53
2017-11-04T12:13:33.129Z,26.02
2017-11-04T12:16:01.383Z,30.97
2017-11-04T12:18:29.857Z,37.47
2017-11-04T12:20:57.365Z,30.10
2017-11-04T12:23:24.852Z,28.43
2017-11-04T12:25:52.365Z,30.73
2017-11-04T12:28:21.418Z,25.70
2017-11-04T12:30:48.922Z,27.80
2017-11-04T12:33:17.172Z,30.20
2017-11-04T12:35:45.554Z,31.60
2017-11-04T12:38:13.048Z,27.63
2017-11-04T12:40:40.553Z,27.60
2017-11-04T12:43:08.034Z,30.83
2017-11-04T12:45:35.525Z,25.67
2017-11-04T12:48:03.007Z,25.90
2017-11-04T12:50:30.535Z,27.20
2017-11-04T12:52:58.024Z,22.73
2017-11-04T12:55:25.505Z,20.40
2017-11-04T12:57:53.014Z,25.10
2017-11-04T13:00:20.497Z,19.73
2017-11-04T13:02:48.000Z,23.20
2017-11-04T13:05:15.485Z,23.20
2017-11-04T13:07:42.959Z,15.57
2017-11-04T13:10:11.122Z,14.20
2017-11-04T13:12:38.609Z,9.93
2017-11-04T13:15:06.091Z,9.97
2017-11-04T13:17:33.573Z,8.30
2017-11-04T13:20:01.838Z,9.60
2017-11-04T13:22:29.334Z,7.77
2017-11-04T13:24:57.408Z,7.60
2017-11-04T13:27:25.720Z,10.03
2017-11-04T13:29:53.184Z,8.07
2017-11-04T13:32:20.670Z,8.13
2017-11-04T13:34:48.930Z,7.00
2017-11-04T13:37:16.506Z,7.50
2017-11-04T13:39:44.754Z,6.80
2017-11-04T13:42:12.249Z,6.93
2017-11-04T13:44:40.497Z,8.43
2017-11-04T13:47:07.969Z,8.90
2017-11-04T13:49:35.477Z,7.70
2017-11-04T13:52:02.954Z,8.70
2017-11-04T13:54:30.549Z,9.20
2017-11-04T13:56:58.809Z,11.67
2017-11-04T13:59:26.294Z,10.17
2017-11-04T14:01:54.531Z,9.63
2017-11-04T14:04:22.044Z,13.20
2017-11-04T14:06:49.512Z,9.43
2017-11-04T14:09:17.005Z,8.87
2017-11-04T14:11:45.400Z,10.20
2017-11-04T14:14:13.592Z,7.80
2017-11-04T14:16:42.287Z,7.90
2017-11-04T14:19:09.794Z,8.33
2017-11-04T14:21:37.271Z,16.00
2017-11-04T14:24:06.280Z,8.57
2017-11-04T14:26:34.521Z,8.90
2017-11-04T14:29:02.028Z,8.10
2017-11-04T14:31:30.262Z,10.33
2017-11-04T14:33:57.757Z,8.00
2017-11-04T14:36:26.014Z,11.30
2017-11-04T14:38:54.339Z,10.23
2017-11-04T14:41:21.813Z,8.37
2017-11-04T14:43:49.308Z,9.60
2017-11-04T14:46:16.788Z,8.30
2017-11-04T14:48:45.037Z,7.32
2017-11-04T14:51:13.280Z,9.47
2017-11-04T14:53:40.799Z,13.07
2017-11-04T14:56:09.325Z,8.67
2017-11-04T14:58:36.802Z,8.30
2017-11-04T15:01:04.290Z,9.30
2017-11-04T15:03:32.542Z,12.77
2017-11-04T15:06:00.407Z,9.80
2017-11-04T15:08:27.892Z,9.07
2017-11-04T15:10:56.137Z,8.10
2017-11-04T15:13:23.607Z,11.33
2017-11-04T15:15:51.084Z,9.30
2017-11-04T15:18:19.329Z,10.80
2017-11-04T15:20:46.829Z,7.83
2017-11-04T15:23:14.315Z,8.40
2017-11-04T15:25:41.808Z,7.53
2017-11-04T15:28:09.289Z,8.25
2017-11-04T15:30:37.547Z,12.13
2017-11-04T15:33:05.033Z,8.57
2017-11-04T15:35:33.293Z,8.30
2017-11-04T15:38:01.533Z,7.40
2017-11-04T15:40:29.117Z,8.73
2017-11-04T15:42:56.582Z,8.33
2017-11-04T15:45:24.913Z,8.73
2017-11-04T15:47:52.991Z,9.33
2017-11-04T15:50:20.464Z,11.33
2017-11-04T15:52:47.948Z,10.53
2017-11-04T15:55:16.190Z,13.10
2017-11-04T15:57:43.683Z,11.57
2017-11-04T16:00:11.921Z,8.80
2017-11-04T16:02:39.418Z,8.80
2017-11-04T16:05:07.678Z,11.63
2017-11-04T16:07:35.159Z,10.00
2017-11-04T16:10:03.421Z,11.37
2017-11-04T16:12:31.684Z,10.43
2017-11-04T16:15:01.542Z,10.50
2017-11-04T16:17:29.025Z,10.60
2017-11-04T16:19:56.518Z,11.00
2017-11-04T16:22:24.027Z,12.37
2017-11-04T16:24:51.507Z,10.30
2017-11-04T16:27:19.023Z,10.80
2017-11-04T16:29:46.511Z,9.30
2017-11-04T16:32:14.015Z,13.33
2017-11-04T16:34:42.265Z,10.20
2017-11-04T16:37:09.752Z,9.40
2017-11-04T16:39:37.995Z,9.60
2017-11-04T16:42:05.481Z,9.40
2017-11-04T16:44:33.730Z,16.33
2017-11-04T16:47:01.220Z,11.93
2017-11-04T16:49:29.509Z,11.37
2017-11-04T16:51:57.784Z,8.93
2017-11-04T16:54:26.042Z,12.15
2017-11-04T16:56:53.517Z,10.23
2017-11-04T16:59:21.768Z,11.27
2017-11-04T17:01:49.300Z,11.77
2017-11-04T17:04:16.797Z,10.23
2017-11-04T17:06:44.272Z,10.13
2017-11-04T17:09:12.543Z,11.43
2017-11-04T17:11:40.793Z,9.87
2017-11-04T17:14:08.360Z,12.95
2017-11-04T17:16:35.972Z,11.60
2017-11-04T17:19:03.471Z,13.83
2017-11-04T17:21:30.953Z,12.70
2017-11-04T17:23:59.232Z,13.80
2017-11-04T17:26:27.513Z,12.93
2017-11-04T17:28:55.108Z,13.97
2017-11-04T17:31:22.650Z,13.07
2017-11-04T17:33:50.214Z,13.10
2017-11-04T17:36:17.689Z,15.40
2017-11-04T17:38:45.201Z,13.77
2017-11-04T17:41:13.449Z,12.83
2017-11-04T17:43:41.229Z,12.87
2017-11-04T17:46:08.704Z,18.77
2017-11-04T17:48:36.986Z,14.80
2017-11-04T17:51:04.474Z,17.00
2017-11-04T17:53:31.995Z,16.50
2017-11-04T17:56:00.261Z,16.95
2017-11-04T17:58:28.501Z,19.60
2017-11-04T18:00:56.938Z,23.93
2017-11-04T18:03:24.454Z,24.63
2017-11-04T18:05:51.970Z,19.60
2017-11-04T18:08:19.448Z,22.13
2017-11-04T18:10:46.936Z,18.90
2017-11-04T18:13:15.029Z,16.30
2017-11-04T18:15:43.291Z,16.37
2017-11-04T18:18:10.793Z,17.20
2017-11-04T18:20:39.050Z,18.02
2017-11-04T18:23:07.289Z,18.60
2017-11-04T18:25:34.790Z,20.77
2017-11-04T18:28:02.280Z,20.33
2017-11-04T18:30:29.840Z,23.47
2017-11-04T18:32:57.352Z,18.87
2017-11-04T18:35:25.622Z,22.73
2017-11-04T18:37:53.873Z,19.80
2017-11-04T18:40:21.491Z,20.03
2017-11-04T18:42:49.023Z,18.97
2017-11-04T18:45:17.276Z,18.30
2017-11-04T18:47:45.693Z,18.97
2017-11-04T18:50:13.287Z,23.53
2017-11-04T18:52:40.815Z,24.20
2017-11-04T18:55:08.342Z,19.90
2017-11-04T18:57:35.840Z,21.37
2017-11-04T19:00:04.103Z,22.07
2017-11-04T19:02:31.600Z,28.17
2017-11-04T19:04:59.146Z,26.80
2017-11-04T19:07:26.680Z,26.07
2017-11-04T19:09:54.934Z,23.47
2017-11-04T19:12:22.423Z,21.47
2017-11-04T19:14:49.904Z,21.63
2017-11-04T19:17:17.392Z,19.47
2017-11-04T19:19:44.923Z,21.17
2017-11-04T19:22:12.428Z,22.67
2017-11-04T19:24:40.732Z,19.70
2017-11-04T19:27:08.305Z,20.47
2017-11-04T19:29:35.838Z,20.47
2017-11-04T19:32:03.329Z,20.90
2017-11-04T19:34:30.849Z,20.80
2017-11-04T19:36:59.092Z,19.40
2017-11-04T19:39:26.581Z,18.53
2017-11-04T19:41:54.857Z,23.30
2017-11-04T19:44:23.118Z,23.13
2017-11-04T19:46:50.597Z,23.90
2017-11-04T19:49:18.848Z,20.80
2017-11-04T19:51:47.144Z,16.30
2017-11-04T19:54:16.123Z,15.77
2017-11-04T19:56:45.149Z,21.90
2017-11-04T19:59:12.669Z,19.00
2017-11-04T20:01:40.163Z,19.43
2017-11-04T20:04:08.174Z,17.77
2017-11-04T20:06:35.651Z,20.20
2017-11-04T20:09:03.142Z,16.33
2017-11-04T20:11:32.419Z,18.30
2017-11-04T20:13:59.925Z,19.30
2017-11-04T20:16:27.492Z,19.90
2017-11-04T20:18:55.024Z,19.50
2017-11-04T20:21:22.513Z,20.70
2017-11-04T20:23:50.006Z,20.80
2017-11-04T20:26:17.543Z,23.97
2017-11-04T20:28:45.091Z,19.87
2017-11-04T20:31:12.585Z,24.40
2017-11-04T20:33:40.149Z,21.30
2017-11-04T20:36:07.644Z,26.23
2017-11-04T20:38:35.125Z,23.00
2017-11-04T20:41:02.683Z,25.40
2017-11-04T20:43:30.166Z,26.53
2017-11-04T20:45:57.666Z,29.40
2017-11-04T20:48:25.153Z,23.87
2017-11-04T20:50:53.003Z,26.87
2017-11-04T20:53:20.478Z,24.83
2017-11-04T20:55:48.020Z,24.63
2017-11-04T20:58:15.495Z,22.67
2017-11-04T21:00:42.969Z,25.70
2017-11-04T21:03:12.983Z,26.55
2017-11-04T21:08:44.443Z,24.40
2017-11-04T21:11:14.211Z,24.60
2017-11-04T21:13:41.756Z,25.90
2017-11-04T21:16:09.639Z,28.70
2017-11-04T21:18:39.073Z,22.10
2017-11-04T21:21:06.842Z,23.20
2017-11-04T21:23:35.352Z,26.53
2017-11-04T21:26:02.981Z,22.67
2017-11-04T21:28:30.495Z,26.03
2017-11-04T21:30:58.008Z,24.97
2017-11-04T21:33:26.342Z,27.33
2017-11-04T21:35:53.860Z,25.63
2017-11-04T21:38:21.359Z,27.47
2017-11-04T21:40:48.876Z,26.60
2017-11-04T21:43:16.456Z,32.03
2017-11-04T21:45:43.996Z,24.57
2017-11-04T21:48:12.297Z,29.77
2017-11-04T21:50:39.801Z,26.97
2017-11-04T21:53:07.375Z,28.70
2017-11-04T21:55:35.676Z,27.60
2017-11-04T21:58:03.246Z,28.67
2017-11-04T22:00:30.796Z,30.47
2017-11-04T22:02:59.119Z,27.08
2017-11-04T22:05:26.622Z,24.97
2017-11-04T22:07:54.134Z,26.80
2017-11-04T22:10:21.679Z,31.10
2017-11-04T22:12:49.229Z,24.33
2017-11-04T22:15:16.748Z,23.80
2017-11-04T22:17:45.066Z,31.35
2017-11-04T22:20:12.594Z,25.83
2017-11-04T22:22:40.136Z,27.40
2017-11-04T22:25:08.392Z,28.87
2017-11-04T22:27:35.887Z,23.73
2017-11-04T22:30:04.139Z,25.17
2017-11-04T22:32:31.653Z,22.40
2017-11-04T22:34:59.197Z,23.57
2017-11-04T22:37:26.761Z,25.33
2017-11-04T22:39:54.288Z,29.15
2017-11-04T22:42:22.560Z,25.80
2017-11-04T22:44:50.864Z,23.20
2017-11-04T22:47:18.373Z,26.90
2017-11-04T22:49:47.359Z,24.80
2017-11-04T22:52:14.920Z,32.13
2017-11-04T22:54:42.472Z,23.42
2017-11-04T22:57:09.981Z,28.80
2017-11-04T22:59:37.471Z,25.33
2017-11-04T23:02:04.981Z,25.03
2017-11-04T23:04:33.257Z,28.30
2017-11-04T23:07:01.533Z,26.00
2017-11-04T23:09:29.785Z,25.10
2017-11-04T23:11:57.292Z,24.83
2017-11-04T23:14:24.784Z,28.30
2017-11-04T23:16:52.295Z,26.10
2017-11-04T23:19:20.558Z,23.53
2017-11-04T23:21:48.096Z,26.17
2017-11-04T23:24:15.624Z,25.83
2017-11-04T23:26:43.119Z,26.57
2017-11-04T23:29:11.387Z,28.83
2017-11-04T23:31:38.868Z,25.27
2017-11-04T23:34:07.141Z,28.33
2017-11-04T23:36:35.393Z,31.37
2017-11-04T23:39:02.902Z,29.70
2017-11-04T23:41:30.404Z,28.90
2017-11-04T23:43:57.904Z,27.73
2017-11-04T23:46:26.165Z,27.80
2017-11-04T23:48:53.671Z,30.97
2017-11-04T23:51:21.165Z,26.90
2017-11-04T23:53:48.678Z,30.23
2017-11-04T23:56:16.152Z,26.50
2017-11-04T23:58:43.666Z,27.52
